Terminal Aerodrome Forecast
Issued by NWS Charleston, WV

Current Version | Previous Version | Graphics & Text | Print | Product List | Glossary On
Versions: 1 2 3 4 5 6 7 8 9 10 11 12 13 14 15 16 17 18 19 20 21 22
000
FTUS41 KRLX 241500 AAB
TAFBKW
TAF AMD
KBKW 241506Z 2415/2512 21012G29KT P6SM SCT050
     FM241800 22019G40KT P6SM SCT150
     FM242100 24014G26KT P6SM SCT150
     FM250000 25007KT P6SM SCT040=

USA.gov is the U.S. government's official web portal to all federal, state and local government web resources and services.